Time;durP1;ratioP1;P1;durP2;ratioP2;P2;SDS_P1;SDS_P2;PMS_P1;PMS_P2;Temp;Humidity;BMP_temperature;BMP_pressure;BME280_temperature;BME280_humidity;BME280_pressure;Samples;Min_cycle;Max_cycle;Signal;HPM_P1;HPM_P2
2021/10/16 00:01:39;;;;;;;0.30;0.30;;;7.80;99.90;;;;;;5016532;28;20478;-75
2021/10/16 00:04:06;;;;;;;0.40;0.40;;;7.80;99.90;;;;;;4997252;28;20439;-75
2021/10/16 00:06:33;;;;;;;0.40;0.37;;;7.80;99.90;;;;;;5000252;28;20479;-75
2021/10/16 00:08:59;;;;;;;3.03;0.50;;;7.70;99.90;;;;;;5016809;28;20443;-75
2021/10/16 00:11:26;;;;;;;0.40;0.40;;;7.70;99.90;;;;;;5016479;28;20467;-75
2021/10/16 00:13:53;;;;;;;0.93;0.50;;;7.70;99.90;;;;;;5016592;28;20942;-75
2021/10/16 00:16:23;;;;;;;0.50;0.50;;;7.70;99.90;;;;;;5016680;28;20452;-75
2021/10/16 00:18:50;;;;;;;0.73;0.40;;;7.80;99.90;;;;;;4997299;28;20436;-75
2021/10/16 00:21:16;;;;;;;0.30;0.30;;;7.80;99.90;;;;;;4997104;28;20476;-75
2021/10/16 00:23:43;;;;;;;0.87;0.87;;;7.80;99.90;;;;;;5015976;28;20455;-75
2021/10/16 00:26:10;;;;;;;0.40;0.40;;;7.80;99.90;;;;;;5015997;28;21006;-75
2021/10/16 00:28:37;;;;;;;0.47;0.47;;;7.80;99.90;;;;;;5016335;28;20439;-75
2021/10/16 00:31:04;;;;;;;0.80;0.50;;;7.80;99.90;;;;;;5016278;28;20525;-76
2021/10/16 00:33:32;;;;;;;0.90;0.63;;;7.70;99.90;;;;;;5016449;28;20452;-75
2021/10/16 00:35:59;;;;;;;3.10;0.50;;;7.70;99.90;;;;;;5016494;28;20824;-75
2021/10/16 00:38:26;;;;;;;5.60;3.20;;;7.80;99.90;;;;;;5015773;28;20448;-75
2021/10/16 00:40:53;;;;;;;0.80;0.40;;;7.80;99.90;;;;;;5016019;28;20458;-75
2021/10/16 00:43:19;;;;;;;1.73;0.60;;;7.90;99.90;;;;;;5016089;28;20448;-75
2021/10/16 00:45:46;;;;;;;0.50;0.40;;;7.90;99.90;;;;;;5016036;28;20956;-75
2021/10/16 00:48:13;;;;;;;0.30;0.30;;;8.00;99.90;;;;;;5015366;28;20849;-75
2021/10/16 00:50:42;;;;;;;0.30;0.30;;;8.00;99.90;;;;;;5016138;28;20443;-75
2021/10/16 00:53:09;;;;;;;0.30;0.30;;;8.10;99.90;;;;;;5015878;28;20522;-75
2021/10/16 00:55:36;;;;;;;0.40;0.40;;;8.10;99.90;;;;;;5016119;28;20447;-75
2021/10/16 00:58:03;;;;;;;0.40;0.37;;;8.20;99.90;;;;;;5015477;28;20448;-75
2021/10/16 01:00:30;;;;;;;0.50;0.50;;;8.20;99.90;;;;;;5015760;28;20447;-75
2021/10/16 01:02:57;;;;;;;0.47;0.47;;;8.30;99.90;;;;;;5015308;28;20991;-75
2021/10/16 01:05:23;;;;;;;0.90;0.90;;;8.30;99.90;;;;;;5015963;28;20459;-75
2021/10/16 01:07:51;;;;;;;0.50;0.50;;;8.30;99.90;;;;;;5015035;28;20482;-75
2021/10/16 01:10:18;;;;;;;0.40;0.40;;;8.30;99.90;;;;;;5015909;28;20459;-75
2021/10/16 01:12:45;;;;;;;0.90;0.40;;;8.30;99.90;;;;;;5015209;28;20990;-76
2021/10/16 01:15:16;;;;;;;1.07;1.07;;;8.40;99.90;;;;;;5016316;28;20841;-75
2021/10/16 01:17:45;;;;;;;0.33;0.33;;;8.40;99.90;;;;;;5015604;28;20506;-75
2021/10/16 01:20:14;;;;;;;0.73;0.73;;;8.40;99.90;;;;;;5015715;28;20481;-75
2021/10/16 01:22:44;;;;;;;1.90;0.50;;;8.40;99.90;;;;;;5015298;28;20823;-75
2021/10/16 01:25:12;;;;;;;0.40;0.40;;;8.50;99.90;;;;;;5015612;28;20805;-75
2021/10/16 01:27:40;;;;;;;0.77;0.77;;;8.50;99.90;;;;;;5014895;28;20475;-75
2021/10/16 01:30:09;;;;;;;0.40;0.30;;;8.60;99.90;;;;;;5015470;28;20447;-75
2021/10/16 01:32:37;;;;;;;2.30;1.83;;;8.60;99.90;;;;;;5015126;28;20463;-74
2021/10/16 01:35:05;;;;;;;1.07;0.60;;;8.60;99.90;;;;;;5015415;28;20447;-74
2021/10/16 01:37:32;;;;;;;1.63;1.00;;;8.70;99.90;;;;;;5014795;28;20973;-75
2021/10/16 01:40:00;;;;;;;0.70;0.60;;;8.70;99.90;;;;;;5015322;28;20451;-75
2021/10/16 01:42:27;;;;;;;2.50;0.70;;;8.70;99.90;;;;;;5015031;28;20471;-75
2021/10/16 01:44:54;;;;;;;0.50;0.50;;;8.60;99.90;;;;;;5015221;28;20452;-75
2021/10/16 01:47:21;;;;;;;0.33;0.33;;;8.50;99.90;;;;;;5014197;28;20831;-75
2021/10/16 01:49:47;;;;;;;0.60;0.60;;;8.40;99.90;;;;;;5014688;28;20487;-74
2021/10/16 01:52:14;;;;;;;0.67;0.67;;;8.40;99.90;;;;;;5014743;28;20978;-75
2021/10/16 01:54:41;;;;;;;0.37;0.30;;;8.40;99.90;;;;;;5014483;28;20455;-75
2021/10/16 01:57:09;;;;;;;0.50;0.50;;;8.40;99.90;;;;;;5014943;28;20444;-75
2021/10/16 01:59:36;;;;;;;1.10;1.00;;;8.40;99.90;;;;;;5014623;28;20819;-75
2021/10/16 02:02:03;;;;;;;1.40;0.77;;;8.30;99.90;;;;;;5014528;28;20475;-75
2021/10/16 02:04:30;;;;;;;3.50;0.80;;;8.30;99.90;;;;;;5014127;28;20455;-75
2021/10/16 02:06:57;;;;;;;0.90;0.40;;;8.30;99.90;;;;;;5014702;28;20510;-74
2021/10/16 02:09:24;;;;;;;1.37;0.40;;;8.30;99.90;;;;;;5013936;28;20515;-79
2021/10/16 02:11:50;;;;;;;0.73;0.40;;;8.30;99.90;;;;;;5014353;28;20967;-79
2021/10/16 02:14:18;;;;;;;0.47;0.47;;;8.40;99.90;;;;;;5014347;28;20451;-79
2021/10/16 02:16:45;;;;;;;3.07;1.90;;;8.40;99.90;;;;;;5014635;28;20451;-79
2021/10/16 02:19:12;;;;;;;0.30;0.30;;;8.40;99.90;;;;;;5013299;28;20454;-78
2021/10/16 02:21:39;;;;;;;0.30;0.30;;;8.40;99.90;;;;;;5014468;28;20825;-79
2021/10/16 02:24:06;;;;;;;0.80;0.43;;;8.40;99.90;;;;;;5014088;28;20443;-79
2021/10/16 02:26:32;;;;;;;2.40;0.70;;;8.40;99.90;;;;;;4994746;28;20456;-79
2021/10/16 02:28:59;;;;;;;0.50;0.40;;;8.50;99.90;;;;;;4998393;28;20459;-79
2021/10/16 02:31:27;;;;;;;0.40;0.30;;;8.60;99.90;;;;;;5014300;28;20471;-79
2021/10/16 02:33:54;;;;;;;0.50;0.50;;;8.60;99.90;;;;;;5013791;28;20455;-79
2021/10/16 02:36:21;;;;;;;0.43;0.40;;;8.70;99.90;;;;;;5013964;28;20451;-79
2021/10/16 02:38:48;;;;;;;0.50;0.50;;;8.70;99.90;;;;;;5014000;28;20439;-79
2021/10/16 02:41:14;;;;;;;1.00;1.00;;;8.70;99.90;;;;;;5014157;28;20479;-79
2021/10/16 02:43:41;;;;;;;1.53;0.43;;;8.80;99.90;;;;;;5013760;28;20432;-79
2021/10/16 02:46:08;;;;;;;0.50;0.50;;;8.80;99.90;;;;;;5014075;28;20452;-79
2021/10/16 02:48:36;;;;;;;0.50;0.40;;;8.80;99.90;;;;;;5013702;28;20494;-79
2021/10/16 02:51:03;;;;;;;0.40;0.37;;;8.80;99.90;;;;;;5013721;28;20467;-79
2021/10/16 02:53:30;;;;;;;1.43;0.40;;;8.80;99.90;;;;;;5013719;28;20448;-79
2021/10/16 02:55:56;;;;;;;0.70;0.70;;;8.80;99.90;;;;;;5013647;28;20448;-78
2021/10/16 02:58:23;;;;;;;0.90;0.60;;;8.80;99.90;;;;;;5013900;28;20454;-79
2021/10/16 03:00:50;;;;;;;0.40;0.40;;;8.80;99.90;;;;;;5010014;28;20444;-79
2021/10/16 03:03:17;;;;;;;0.63;0.63;;;8.80;99.90;;;;;;5013935;28;20447;-79
2021/10/16 03:05:45;;;;;;;0.77;0.60;;;8.80;99.90;;;;;;5013295;28;20962;-79
2021/10/16 03:08:11;;;;;;;1.47;1.37;;;8.80;99.90;;;;;;5013791;28;20479;-79
2021/10/16 03:10:38;;;;;;;0.60;0.60;;;8.70;99.90;;;;;;5013461;28;20447;-75
2021/10/16 03:13:05;;;;;;;0.80;0.80;;;8.70;99.90;;;;;;5013737;28;20456;-75
2021/10/16 03:15:32;;;;;;;2.00;1.83;;;8.60;99.90;;;;;;5013156;28;20842;-75
2021/10/16 03:17:58;;;;;;;3.07;0.63;;;8.70;99.90;;;;;;5013720;28;20451;-75
2021/10/16 03:20:25;;;;;;;0.50;0.50;;;8.70;99.90;;;;;;5012981;28;20977;-74
2021/10/16 03:22:53;;;;;;;0.70;0.50;;;8.70;99.90;;;;;;5013613;28;20468;-75
2021/10/16 03:25:20;;;;;;;0.50;0.50;;;8.70;99.90;;;;;;5013001;28;20801;-75
2021/10/16 03:27:46;;;;;;;0.87;0.60;;;8.70;99.90;;;;;;5013492;28;20483;-75
2021/10/16 03:30:13;;;;;;;0.60;0.60;;;8.70;99.90;;;;;;5016556;28;20450;-75
2021/10/16 03:32:40;;;;;;;0.50;0.50;;;8.70;99.90;;;;;;5019736;28;20558;-75
2021/10/16 03:35:07;;;;;;;0.30;0.30;;;8.70;99.90;;;;;;5019787;28;20452;-75
2021/10/16 03:37:34;;;;;;;1.30;0.40;;;8.70;99.90;;;;;;5019733;28;20951;-75
2021/10/16 03:40:02;;;;;;;0.70;0.70;;;8.70;99.90;;;;;;5019665;28;20451;-75
2021/10/16 03:42:29;;;;;;;0.60;0.60;;;8.70;99.90;;;;;;5019844;28;20466;-75
2021/10/16 03:44:56;;;;;;;1.67;0.60;;;8.80;99.90;;;;;;5019993;28;20462;-75
2021/10/16 03:47:23;;;;;;;3.70;0.77;;;8.80;99.90;;;;;;5020443;28;20568;-75
2021/10/16 03:49:50;;;;;;;0.80;0.60;;;8.80;99.90;;;;;;5018687;28;20475;-75
2021/10/16 03:52:16;;;;;;;0.90;0.70;;;8.80;99.90;;;;;;5019822;28;20474;-75
2021/10/16 03:54:43;;;;;;;2.53;2.43;;;8.80;99.90;;;;;;5019352;28;20447;-75
2021/10/16 03:57:11;;;;;;;0.60;0.60;;;8.80;99.90;;;;;;5019579;28;20450;-75
2021/10/16 03:59:41;;;;;;;0.63;0.50;;;8.90;99.90;;;;;;5019617;28;20459;-75
2021/10/16 04:02:08;;;;;;;1.10;0.40;;;8.90;99.90;;;;;;5019481;28;20566;-75
2021/10/16 04:04:35;;;;;;;1.17;1.17;;;8.80;99.90;;;;;;5019455;28;20456;-75
2021/10/16 04:07:02;;;;;;;2.43;2.13;;;8.80;99.90;;;;;;5019736;28;20447;-75
2021/10/16 04:09:29;;;;;;;2.87;0.60;;;8.80;99.90;;;;;;5019225;28;20451;-74
2021/10/16 04:11:55;;;;;;;0.70;0.60;;;8.80;99.90;;;;;;5019688;28;20471;-75
2021/10/16 04:14:23;;;;;;;0.77;0.77;;;8.80;99.90;;;;;;5018887;28;20970;-75
2021/10/16 04:16:50;;;;;;;0.80;0.50;;;8.80;99.90;;;;;;5019401;28;20972;-75
2021/10/16 04:19:17;;;;;;;2.70;2.03;;;8.80;99.90;;;;;;5019445;28;20450;-75
2021/10/16 04:21:44;;;;;;;3.00;1.30;;;8.80;99.90;;;;;;5019556;28;20808;-75
2021/10/16 04:24:10;;;;;;;1.17;1.00;;;8.80;99.90;;;;;;5018972;28;20447;-75
2021/10/16 04:26:37;;;;;;;1.10;0.40;;;8.80;99.90;;;;;;5019544;28;20462;-75
2021/10/16 04:29:04;;;;;;;2.00;0.73;;;8.70;99.90;;;;;;5019228;28;20486;-75
2021/10/16 04:31:32;;;;;;;1.33;0.90;;;8.80;99.90;;;;;;5019497;28;20498;-75
2021/10/16 04:33:59;;;;;;;1.17;0.43;;;8.80;99.90;;;;;;5019207;28;20440;-74
2021/10/16 04:36:26;;;;;;;1.03;1.03;;;8.80;99.90;;;;;;5019302;28;20479;-75
2021/10/16 04:38:54;;;;;;;1.27;0.60;;;8.80;99.90;;;;;;5019318;28;20523;-75
2021/10/16 04:41:21;;;;;;;2.87;1.07;;;8.80;99.90;;;;;;5017555;28;20474;-75
2021/10/16 04:43:48;;;;;;;1.37;1.23;;;8.80;99.90;;;;;;5015762;28;20454;-75
2021/10/16 04:46:14;;;;;;;1.10;1.10;;;8.80;99.90;;;;;;5015638;28;20448;-75
2021/10/16 04:48:44;;;;;;;1.07;1.07;;;8.80;99.90;;;;;;5015869;28;20499;-75
2021/10/16 04:51:11;;;;;;;1.10;0.67;;;8.80;99.90;;;;;;5015405;28;20485;-75
2021/10/16 04:53:38;;;;;;;0.50;0.50;;;8.80;99.90;;;;;;5016171;28;20451;-75
2021/10/16 04:56:06;;;;;;;0.90;0.80;;;8.80;99.90;;;;;;5015812;28;20460;-75
2021/10/16 04:58:33;;;;;;;4.53;1.30;;;8.90;99.90;;;;;;5016143;28;20483;-75
2021/10/16 05:00:59;;;;;;;0.80;0.80;;;8.90;99.90;;;;;;5015783;28;20472;-75
2021/10/16 05:03:26;;;;;;;1.33;1.23;;;8.90;99.90;;;;;;5016075;28;20432;-75
2021/10/16 05:05:55;;;;;;;0.53;0.50;;;8.90;99.90;;;;;;5015655;28;20456;-75
2021/10/16 05:08:22;;;;;;;1.30;1.23;;;8.90;99.90;;;;;;5015604;28;20488;-75
2021/10/16 05:10:49;;;;;;;1.60;0.87;;;8.90;99.90;;;;;;5015516;28;20865;-75
2021/10/16 05:13:16;;;;;;;1.40;0.90;;;8.90;99.90;;;;;;5015295;28;20939;-75
2021/10/16 05:15:43;;;;;;;2.73;1.40;;;8.90;99.90;;;;;;5015460;28;20447;-76
2021/10/16 05:18:09;;;;;;;2.97;1.90;;;8.80;99.90;;;;;;5015732;28;20454;-75
2021/10/16 05:20:36;;;;;;;1.13;1.03;;;8.90;99.90;;;;;;5015359;28;20503;-75
2021/10/16 05:23:04;;;;;;;2.00;1.90;;;8.80;99.90;;;;;;5015752;28;20436;-75
2021/10/16 05:25:31;;;;;;;1.77;1.73;;;8.90;99.90;;;;;;5015331;28;20452;-74
2021/10/16 05:27:58;;;;;;;13.00;2.10;;;8.90;99.90;;;;;;5015153;28;21029;-75
2021/10/16 05:30:24;;;;;;;2.40;2.30;;;8.90;99.90;;;;;;5014938;28;20947;-75
2021/10/16 05:32:51;;;;;;;0.83;0.83;;;8.90;99.90;;;;;;5015418;28;20478;-75
2021/10/16 05:35:18;;;;;;;1.20;1.10;;;8.90;99.90;;;;;;5014794;28;20931;-75
2021/10/16 05:37:45;;;;;;;2.17;0.67;;;8.90;99.90;;;;;;5015010;28;20955;-75
2021/10/16 05:40:13;;;;;;;1.27;0.60;;;8.90;99.90;;;;;;5015331;28;20456;-75
2021/10/16 05:42:40;;;;;;;1.30;0.70;;;8.90;99.90;;;;;;5014565;28;20467;-75
2021/10/16 05:45:07;;;;;;;0.97;0.97;;;8.90;99.90;;;;;;5015224;28;20455;-75
2021/10/16 05:47:36;;;;;;;1.37;0.70;;;8.90;99.90;;;;;;5014586;28;20444;-75
2021/10/16 05:50:05;;;;;;;2.60;1.83;;;8.90;99.90;;;;;;5014921;28;20432;-75
2021/10/16 05:52:31;;;;;;;5.03;0.57;;;9.00;99.90;;;;;;5014341;28;20881;-75
2021/10/16 05:54:58;;;;;;;1.03;0.60;;;8.90;99.90;;;;;;5014107;28;20463;-75
2021/10/16 05:57:26;;;;;;;2.33;0.70;;;9.00;99.90;;;;;;5014768;28;20451;-75
2021/10/16 05:59:53;;;;;;;2.03;1.63;;;9.00;99.90;;;;;;5014619;28;20939;-75
2021/10/16 06:02:20;;;;;;;1.03;1.03;;;9.00;99.90;;;;;;5014414;28;20482;-75
2021/10/16 06:04:47;;;;;;;1.13;1.10;;;8.90;99.90;;;;;;5014874;28;20451;-75
2021/10/16 06:07:13;;;;;;;0.70;0.70;;;8.90;99.90;;;;;;5014197;28;20458;-75
2021/10/16 06:09:40;;;;;;;3.07;0.50;;;8.90;99.90;;;;;;5014736;28;20479;-75
2021/10/16 06:12:07;;;;;;;0.93;0.93;;;8.90;99.90;;;;;;5014058;28;21027;-75
2021/10/16 06:14:35;;;;;;;6.27;2.50;;;9.00;99.90;;;;;;5014716;28;20519;-75
2021/10/16 06:17:03;;;;;;;0.70;0.70;;;9.00;99.90;;;;;;5014352;28;20447;-75
2021/10/16 06:19:30;;;;;;;1.50;1.40;;;9.00;99.90;;;;;;5014599;28;20447;-75
2021/10/16 06:21:57;;;;;;;2.30;0.60;;;9.00;99.90;;;;;;5014263;28;20479;-75
2021/10/16 06:24:24;;;;;;;2.93;1.60;;;9.10;99.90;;;;;;5014542;28;20454;-75
2021/10/16 06:26:50;;;;;;;4.70;2.10;;;9.00;99.90;;;;;;5014195;28;20455;-75
2021/10/16 06:29:17;;;;;;;2.13;1.10;;;8.90;99.90;;;;;;5014303;28;20486;-75
2021/10/16 06:31:45;;;;;;;1.03;1.03;;;8.90;99.90;;;;;;5013402;28;20479;-75
2021/10/16 06:34:12;;;;;;;3.10;2.90;;;8.90;99.90;;;;;;5014031;28;20455;-75
2021/10/16 06:36:39;;;;;;;3.43;1.27;;;8.90;99.90;;;;;;5013835;28;20440;-75
2021/10/16 06:39:06;;;;;;;0.60;0.50;;;9.00;99.90;;;;;;5014290;28;20447;-75
2021/10/16 06:41:32;;;;;;;1.53;1.43;;;9.00;99.90;;;;;;5013914;28;20483;-75
2021/10/16 06:43:59;;;;;;;0.93;0.70;;;9.00;99.90;;;;;;5014225;28;20452;-77
2021/10/16 06:46:26;;;;;;;0.67;0.50;;;9.00;99.90;;;;;;5013651;28;20982;-75
2021/10/16 06:48:55;;;;;;;3.63;1.90;;;9.00;99.90;;;;;;5013589;28;20490;-75
2021/10/16 06:51:22;;;;;;;0.60;0.50;;;9.10;99.90;;;;;;5013794;28;20534;-74
2021/10/16 06:53:49;;;;;;;1.33;1.23;;;9.10;99.90;;;;;;5014248;28;20440;-75
2021/10/16 06:56:15;;;;;;;0.80;0.50;;;9.10;99.90;;;;;;5014105;28;20761;-74
2021/10/16 06:58:42;;;;;;;4.70;0.80;;;9.10;99.90;;;;;;5013890;28;20448;-75
2021/10/16 07:01:09;;;;;;;0.83;0.83;;;9.20;99.90;;;;;;5013668;28;20482;-76
2021/10/16 07:03:36;;;;;;;0.93;0.83;;;9.20;99.90;;;;;;5013560;28;20451;-75
2021/10/16 07:06:04;;;;;;;1.37;1.27;;;9.20;99.90;;;;;;5013459;28;20452;-76
2021/10/16 07:08:30;;;;;;;1.23;1.23;;;9.20;99.90;;;;;;5013454;28;20486;-76
2021/10/16 07:10:57;;;;;;;1.30;1.17;;;9.20;99.90;;;;;;5013683;28;20467;-76
2021/10/16 07:13:24;;;;;;;3.00;1.17;;;9.20;99.90;;;;;;5013822;28;20447;-79
2021/10/16 07:15:51;;;;;;;2.33;2.00;;;9.20;99.90;;;;;;5013369;28;20482;-74
2021/10/16 07:18:18;;;;;;;0.90;0.90;;;9.20;99.90;;;;;;5013714;28;20447;-75
2021/10/16 07:20:45;;;;;;;1.00;1.00;;;9.30;99.90;;;;;;5013571;28;20443;-74
2021/10/16 07:23:16;;;;;;;3.67;2.40;;;9.30;99.90;;;;;;5013650;28;20443;-79
2021/10/16 07:25:43;;;;;;;1.33;1.27;;;9.30;99.90;;;;;;5013749;28;20443;-79
2021/10/16 07:28:10;;;;;;;2.03;1.83;;;9.30;99.90;;;;;;5013589;28;20506;-76
2021/10/16 07:30:37;;;;;;;6.17;1.07;;;9.20;99.90;;;;;;5013528;28;20483;-74
2021/10/16 07:33:04;;;;;;;1.90;1.80;;;9.20;99.90;;;;;;5013586;28;20435;-74
2021/10/16 07:35:31;;;;;;;0.73;0.73;;;9.20;99.90;;;;;;5013286;28;20966;-79
2021/10/16 07:37:57;;;;;;;1.47;1.23;;;9.20;99.90;;;;;;5013216;28;20899;-76
2021/10/16 07:40:26;;;;;;;0.93;0.83;;;9.20;99.90;;;;;;5013544;28;20526;-76
2021/10/16 07:42:52;;;;;;;1.50;1.27;;;9.30;99.90;;;;;;5013405;28;20463;-76
2021/10/16 07:45:19;;;;;;;1.47;1.40;;;9.30;99.90;;;;;;5013431;28;20447;-76
2021/10/16 07:47:46;;;;;;;1.90;0.70;;;9.30;99.90;;;;;;5012536;28;20495;-76
2021/10/16 07:50:13;;;;;;;1.87;1.13;;;9.30;99.90;;;;;;5012911;28;20487;-76
2021/10/16 07:52:39;;;;;;;4.43;1.63;;;9.30;99.90;;;;;;5013137;28;20475;-76
2021/10/16 07:55:06;;;;;;;2.30;2.10;;;9.30;99.90;;;;;;5012816;28;20451;-76
2021/10/16 07:57:34;;;;;;;1.63;1.53;;;9.40;99.90;;;;;;5012887;28;20840;-76
2021/10/16 08:00:01;;;;;;;0.80;0.80;;;9.40;99.90;;;;;;5013077;28;20452;-76
2021/10/16 08:02:28;;;;;;;1.10;1.00;;;9.50;99.90;;;;;;5012800;28;20467;-76
2021/10/16 08:04:56;;;;;;;3.03;2.30;;;9.50;99.90;;;;;;5013259;28;20474;-76
2021/10/16 08:07:23;;;;;;;1.97;1.87;;;9.50;99.90;;;;;;5012678;28;20448;-76
2021/10/16 08:09:50;;;;;;;4.53;3.37;;;9.50;99.90;;;;;;5012930;28;20463;-76
2021/10/16 08:12:16;;;;;;;6.03;2.40;;;9.50;99.90;;;;;;5012721;28;20505;-76
2021/10/16 08:14:45;;;;;;;3.80;1.80;;;9.60;99.90;;;;;;5012975;28;20444;-76
2021/10/16 08:17:11;;;;;;;4.87;2.17;;;9.60;99.90;;;;;;5014177;28;20444;-76
2021/10/16 08:19:38;;;;;;;2.13;1.10;;;9.60;99.90;;;;;;5016485;28;20455;-76
2021/10/16 08:22:05;;;;;;;2.10;0.97;;;9.60;99.90;;;;;;5016191;28;20471;-76
2021/10/16 08:24:32;;;;;;;2.60;1.83;;;9.60;99.90;;;;;;5016519;28;20447;-76
2021/10/16 08:26:58;;;;;;;4.10;3.23;;;9.60;99.90;;;;;;5015806;28;20962;-76
2021/10/16 08:29:25;;;;;;;1.93;1.67;;;9.60;99.90;;;;;;5016593;28;20482;-76
2021/10/16 08:31:54;;;;;;;0.40;0.40;;;9.60;99.90;;;;;;5016318;28;20479;-76
2021/10/16 08:34:20;;;;;;;1.13;0.97;;;9.60;99.90;;;;;;5016308;28;20442;-76
2021/10/16 08:36:47;;;;;;;2.60;1.90;;;9.60;99.90;;;;;;5016376;28;20456;-75
2021/10/16 08:39:14;;;;;;;7.20;0.80;;;9.70;99.90;;;;;;5016327;28;20448;-76
2021/10/16 08:41:42;;;;;;;2.23;2.13;;;9.70;99.90;;;;;;5015880;28;20833;-76
2021/10/16 08:44:09;;;;;;;1.23;0.50;;;9.70;99.90;;;;;;5016069;28;20458;-76
2021/10/16 08:46:41;;;;;;;1.30;1.23;;;9.70;99.90;;;;;;5016350;28;20892;-76
2021/10/16 08:49:12;;;;;;;0.97;0.93;;;9.60;99.90;;;;;;5015603;28;20541;-76
2021/10/16 08:51:39;;;;;;;0.77;0.77;;;9.60;99.90;;;;;;5015642;28;20843;-76
2021/10/16 08:54:06;;;;;;;2.70;1.30;;;9.60;99.90;;;;;;5016224;28;20812;-76
2021/10/16 08:56:33;;;;;;;6.77;2.43;;;9.60;99.90;;;;;;5015729;28;20455;-76
2021/10/16 08:59:00;;;;;;;1.27;1.10;;;9.60;99.90;;;;;;5015969;28;20447;-76
2021/10/16 09:01:27;;;;;;;1.10;1.10;;;9.60;99.90;;;;;;5015709;28;20475;-76
2021/10/16 09:03:55;;;;;;;1.20;1.20;;;9.70;99.90;;;;;;5015751;28;20444;-76
2021/10/16 09:06:27;;;;;;;5.20;1.07;;;9.70;99.90;;;;;;5015609;28;20947;-76
2021/10/16 09:08:55;;;;;;;2.63;1.43;;;9.70;99.90;;;;;;5015617;28;20448;-76
2021/10/16 09:11:25;;;;;;;0.90;0.70;;;9.70;99.90;;;;;;5015480;28;20935;-76
2021/10/16 09:13:57;;;;;;;2.00;1.60;;;9.80;99.90;;;;;;5015312;28;20436;-76
2021/10/16 09:16:27;;;;;;;5.07;2.17;;;9.80;99.90;;;;;;5015360;28;20444;-76
2021/10/16 09:19:00;;;;;;;2.20;0.50;;;9.80;99.90;;;;;;5015429;28;20966;-76
2021/10/16 09:21:31;;;;;;;2.40;0.80;;;9.90;99.90;;;;;;5015133;28;20994;-76
2021/10/16 09:24:13;;;;;;;1.43;1.23;;;9.90;99.90;;;;;;5015415;28;20436;-76
2021/10/16 09:26:42;;;;;;;1.03;0.80;;;10.00;99.90;;;;;;5015364;28;20444;-76
2021/10/16 09:29:11;;;;;;;0.87;0.87;;;10.00;99.90;;;;;;5014928;28;20479;-76
2021/10/16 09:31:40;;;;;;;4.00;2.33;;;10.00;99.90;;;;;;5015397;28;20478;-76
2021/10/16 09:34:08;;;;;;;3.87;2.20;;;10.00;99.90;;;;;;5015010;28;20451;-76
2021/10/16 09:36:38;;;;;;;0.90;0.90;;;9.90;99.90;;;;;;5015081;28;20452;-82
2021/10/16 09:39:07;;;;;;;4.60;2.87;;;9.90;99.90;;;;;;5014580;28;20440;-75
2021/10/16 09:41:35;;;;;;;4.13;2.63;;;9.90;99.90;;;;;;5014897;28;20994;-76
2021/10/16 09:44:03;;;;;;;3.60;1.87;;;10.00;99.90;;;;;;5015279;28;20447;-76
2021/10/16 09:46:31;;;;;;;1.57;1.10;;;10.00;99.90;;;;;;5015232;28;21005;-76
2021/10/16 09:49:07;;;;;;;2.30;2.20;;;10.00;99.90;;;;;;5014727;28;20506;-76
2021/10/16 09:51:51;;;;;;;1.97;1.87;;;10.00;99.90;;;;;;5014766;28;20881;-76
2021/10/16 09:54:18;;;;;;;2.30;2.20;;;10.00;99.90;;;;;;5015147;28;20435;-76
2021/10/16 09:56:46;;;;;;;2.93;1.60;;;10.10;99.90;;;;;;5014958;28;20451;-76
2021/10/16 09:59:16;;;;;;;2.27;2.03;;;10.20;99.90;;;;;;5014945;28;20517;-76
2021/10/16 10:01:44;;;;;;;4.40;2.40;;;10.20;99.90;;;;;;5015101;28;20499;-76
2021/10/16 10:04:12;;;;;;;1.87;1.37;;;10.20;99.90;;;;;;5014698;28;20498;-76
2021/10/16 10:06:40;;;;;;;1.90;1.03;;;10.20;99.90;;;;;;5014863;28;20443;-76
2021/10/16 10:09:09;;;;;;;3.67;1.10;;;10.30;99.90;;;;;;5014727;28;20450;-76
2021/10/16 10:11:36;;;;;;;2.10;1.83;;;10.30;99.90;;;;;;5014663;28;20472;-76
2021/10/16 10:14:04;;;;;;;2.03;0.97;;;10.40;99.90;;;;;;5014728;28;20452;-76
2021/10/16 10:16:32;;;;;;;2.73;2.40;;;10.40;99.90;;;;;;5014704;28;20478;-76
2021/10/16 10:19:01;;;;;;;5.23;0.60;;;10.50;99.90;;;;;;5014657;28;20452;-76
2021/10/16 10:21:33;;;;;;;2.93;1.13;;;10.50;99.90;;;;;;5014523;28;20463;-76
2021/10/16 10:24:03;;;;;;;3.50;0.90;;;10.60;99.90;;;;;;5014698;28;20522;-76
2021/10/16 10:26:33;;;;;;;1.63;0.97;;;10.60;99.90;;;;;;5014220;28;20448;-76
2021/10/16 10:29:02;;;;;;;5.40;1.03;;;10.70;99.90;;;;;;5014478;28;20824;-76
2021/10/16 10:31:52;;;;;;;3.47;1.10;;;10.70;99.90;;;;;;5014198;28;20534;-76
2021/10/16 10:34:21;;;;;;;1.80;0.90;;;10.80;99.90;;;;;;5014697;28;20447;-76
2021/10/16 10:36:49;;;;;;;1.37;1.37;;;10.90;99.90;;;;;;5014283;28;20454;-76
2021/10/16 10:39:57;;;;;;;2.00;1.20;;;10.90;99.90;;;;;;5013737;28;20447;-76
2021/10/16 10:42:56;;;;;;;2.63;1.00;;;11.00;99.90;;;;;;4999055;28;20490;-76
2021/10/16 10:45:26;;;;;;;0.90;0.90;;;11.10;99.90;;;;;;5014167;28;20534;-76
2021/10/16 10:47:58;;;;;;;1.73;1.63;;;11.10;99.90;;;;;;5013873;28;20486;-76
2021/10/16 10:50:41;;;;;;;2.77;0.57;;;11.10;99.90;;;;;;5014058;28;20490;-76
2021/10/16 10:53:10;;;;;;;3.70;1.17;;;11.10;99.90;;;;;;5014121;28;20432;-76
2021/10/16 10:55:49;;;;;;;1.27;1.17;;;11.10;99.90;;;;;;5013722;28;20459;-76
2021/10/16 10:58:18;;;;;;;2.97;2.80;;;11.20;99.90;;;;;;5014038;28;20432;-76
2021/10/16 11:00:45;;;;;;;1.73;1.60;;;11.30;99.90;;;;;;5013863;28;20443;-76
2021/10/16 11:03:45;;;;;;;1.07;1.07;;;11.30;99.90;;;;;;5013929;28;20820;-76
2021/10/16 11:06:18;;;;;;;7.67;1.47;;;11.40;99.90;;;;;;5013946;28;20458;-76
2021/10/16 11:08:49;;;;;;;4.00;1.03;;;11.60;99.90;;;;;;5014032;28;20453;-77
2021/10/16 11:11:16;;;;;;;3.47;1.27;;;11.70;99.90;;;;;;5013682;28;20565;-76
2021/10/16 11:13:45;;;;;;;2.70;1.10;;;11.80;99.90;;;;;;5014345;28;20451;-76
2021/10/16 11:16:12;;;;;;;1.83;1.00;;;11.80;99.90;;;;;;5013726;28;20443;-76
2021/10/16 11:18:38;;;;;;;1.23;0.97;;;11.90;99.90;;;;;;5013411;28;20935;-76
2021/10/16 11:21:07;;;;;;;2.00;1.23;;;11.80;99.90;;;;;;5013623;28;20494;-76
2021/10/16 11:23:37;;;;;;;6.73;1.27;;;11.90;99.90;;;;;;5013351;28;20947;-76
2021/10/16 11:26:06;;;;;;;1.43;1.00;;;12.00;99.90;;;;;;5013610;28;20451;-77
2021/10/16 11:28:34;;;;;;;1.37;1.00;;;12.10;99.90;;;;;;5013334;28;21026;-76
2021/10/16 11:31:04;;;;;;;6.40;1.77;;;12.10;99.90;;;;;;5013322;28;20495;-76
2021/10/16 11:33:33;;;;;;;1.30;1.00;;;12.00;99.90;;;;;;5013505;28;20451;-76
2021/10/16 11:36:01;;;;;;;2.43;2.30;;;12.10;99.90;;;;;;5013215;28;20461;-77
2021/10/16 11:38:29;;;;;;;6.60;2.70;;;12.00;99.90;;;;;;5013206;28;20967;-76
2021/10/16 11:40:58;;;;;;;2.60;1.47;;;12.00;99.90;;;;;;5013112;28;20475;-77
2021/10/16 11:43:26;;;;;;;3.03;1.33;;;12.10;99.90;;;;;;5013445;28;20474;-77
2021/10/16 11:45:57;;;;;;;3.87;1.90;;;12.10;99.90;;;;;;5013395;28;20452;-77
2021/10/16 11:48:26;;;;;;;1.50;1.47;;;12.10;99.90;;;;;;5013160;28;20570;-76
2021/10/16 11:50:55;;;;;;;3.83;1.20;;;12.10;99.90;;;;;;5014472;28;20545;-76
2021/10/16 11:53:24;;;;;;;1.63;1.17;;;12.10;99.90;;;;;;5017033;28;20958;-76
2021/10/16 11:55:52;;;;;;;1.73;1.13;;;12.20;99.90;;;;;;5017287;28;20454;-76
2021/10/16 11:58:21;;;;;;;3.27;2.60;;;12.30;99.90;;;;;;5017264;28;20447;-76
2021/10/16 12:00:49;;;;;;;1.63;1.30;;;12.40;99.90;;;;;;5016828;28;20440;-76
2021/10/16 12:03:17;;;;;;;1.73;1.33;;;12.50;99.90;;;;;;5016875;28;20454;-77
2021/10/16 12:05:49;;;;;;;1.03;0.83;;;12.50;99.90;;;;;;5017132;28;20458;-77
2021/10/16 12:08:17;;;;;;;4.13;1.50;;;12.60;99.90;;;;;;5016793;28;20982;-77
2021/10/16 12:10:53;;;;;;;0.83;0.83;;;12.70;99.90;;;;;;5016872;28;20479;-77
2021/10/16 12:13:34;;;;;;;4.40;1.70;;;12.80;99.90;;;;;;5017004;28;20435;-76
2021/10/16 12:16:10;;;;;;;3.77;1.00;;;12.80;99.90;;;;;;5016940;28;20454;-76
2021/10/16 12:18:47;;;;;;;2.50;1.13;;;12.80;99.90;;;;;;5016967;28;20438;-76
2021/10/16 12:21:25;;;;;;;3.07;1.03;;;12.70;99.90;;;;;;5016519;28;20471;-77
2021/10/16 12:23:52;;;;;;;3.60;1.67;;;12.80;99.90;;;;;;5016887;28;20440;-77
2021/10/16 12:26:21;;;;;;;2.63;1.20;;;12.90;99.90;;;;;;5016442;28;20447;-77
2021/10/16 12:28:49;;;;;;;4.97;1.73;;;13.00;99.90;;;;;;5016705;28;20857;-77
2021/10/16 12:31:16;;;;;;;3.47;1.57;;;13.00;99.90;;;;;;5016204;28;20491;-77
2021/10/16 12:34:05;;;;;;;1.77;1.40;;;13.00;99.90;;;;;;5016664;28;20436;-77
2021/10/16 12:36:35;;;;;;;3.20;1.43;;;12.90;99.90;;;;;;5016320;28;20447;-77
2021/10/16 12:39:04;;;;;;;3.43;1.63;;;12.70;99.90;;;;;;5016304;28;20409;-76
2021/10/16 12:41:34;;;;;;;4.50;2.73;;;12.60;99.90;;;;;;5016384;28;20830;-77
2021/10/16 12:44:15;;;;;;;2.20;1.20;;;12.50;99.90;;;;;;5016459;28;20819;-77
2021/10/16 12:46:42;;;;;;;3.33;1.50;;;12.50;99.90;;;;;;5016366;28;20447;-77
2021/10/16 12:49:10;;;;;;;1.67;1.47;;;12.50;99.90;;;;;;5016009;28;20483;-77
2021/10/16 12:51:44;;;;;;;1.70;0.83;;;12.50;99.90;;;;;;5015815;28;21006;-78
2021/10/16 12:54:11;;;;;;;0.63;0.63;;;12.60;99.90;;;;;;5016305;28;20490;-77
2021/10/16 12:56:38;;;;;;;1.30;1.27;;;12.60;99.90;;;;;;5016218;28;20460;-76
2021/10/16 12:59:04;;;;;;;1.60;1.50;;;12.70;99.90;;;;;;5015893;28;20904;-76
2021/10/16 13:01:32;;;;;;;2.33;1.60;;;12.70;99.90;;;;;;5016008;28;20455;-77